KPDT/PDT METAR and TAF weather

Enter ICAO airport designator
Station Type Date Time Source
KPDT METAR 2020/06/05 07:53 UTC NOAA

KPDT 050753Z AUTO 09006KT 10SM CLR 13/08 A2979 RMK AO2 SLP075 T01280078 402500122


Station Type Date Time Source
KPDT Decoded METAR 2020/06/05 07:53 UTC NOAA

PENDLETON MUNICIPAL AIRPORT, OR, United States (KPDT) 45-70N 118-83W 458M
Jun 05, 2020 - 03:53 AM EDT / 2020.06.05 0753 UTC
Wind: from the E (090 degrees) at 7 MPH (6 KT):0
Visibility: 10 mile(s):0
Sky conditions: clear
Temperature: 55.0 F (12.8 C)
Dew Point: 46.0 F (7.8 C)
Relative Humidity: 71%
Pressure (altimeter): 29.79 in. Hg (1008 hPa)
ob: KPDT 050753Z AUTO 09006KT 10SM CLR 13/08 A2979 RMK AO2 SLP075 T01280078 402500122
cycle: 8

Station Type Date Time Source
KPDT TAF 2020/06/05 06:30 UTC NOAA

TAF KPDT 050529Z 0506/0606 12004KT P6SM SCT120
FM052000 32008KT P6SM OVC090
FM060100 30008KT P6SM OVC050
TEMPO 0603/0606 -SHRA OVC050

Example: see airport list